sensor_id;sensor_type;location;lat;lon;timestamp;P1;durP1;ratioP1;P2;durP2;ratioP2
12665;SDS011;58531;59.050;17.416;2022-08-03T00:00:50;4.80;;;1.90;;
12665;SDS011;58531;59.050;17.416;2022-08-03T00:03:17;3.20;;;2.00;;
12665;SDS011;58531;59.050;17.416;2022-08-03T00:05:44;3.73;;;1.67;;
12665;SDS011;58531;59.050;17.416;2022-08-03T00:08:12;2.73;;;1.70;;
12665;SDS011;58531;59.050;17.416;2022-08-03T00:10:38;4.47;;;1.80;;
12665;SDS011;58531;59.050;17.416;2022-08-03T00:13:05;2.23;;;1.60;;
12665;SDS011;58531;59.050;17.416;2022-08-03T00:15:31;3.77;;;1.50;;
12665;SDS011;58531;59.050;17.416;2022-08-03T00:17:58;3.10;;;1.60;;
12665;SDS011;58531;59.050;17.416;2022-08-03T00:20:25;4.43;;;1.50;;
12665;SDS011;58531;59.050;17.416;2022-08-03T00:22:51;1.93;;;1.33;;
12665;SDS011;58531;59.050;17.416;2022-08-03T00:25:19;3.43;;;1.50;;
12665;SDS011;58531;59.050;17.416;2022-08-03T00:27:46;2.20;;;1.50;;
12665;SDS011;58531;59.050;17.416;2022-08-03T00:30:13;2.37;;;1.47;;
12665;SDS011;58531;59.050;17.416;2022-08-03T00:32:39;2.13;;;1.40;;
12665;SDS011;58531;59.050;17.416;2022-08-03T00:35:06;1.80;;;1.27;;
12665;SDS011;58531;59.050;17.416;2022-08-03T00:37:33;1.40;;;1.20;;
12665;SDS011;58531;59.050;17.416;2022-08-03T00:40:00;2.77;;;1.47;;
12665;SDS011;58531;59.050;17.416;2022-08-03T00:42:28;3.53;;;1.67;;
12665;SDS011;58531;59.050;17.416;2022-08-03T00:44:55;3.47;;;1.33;;
12665;SDS011;58531;59.050;17.416;2022-08-03T00:47:21;3.83;;;1.40;;
12665;SDS011;58531;59.050;17.416;2022-08-03T00:49:48;2.87;;;1.67;;
12665;SDS011;58531;59.050;17.416;2022-08-03T00:52:14;2.20;;;1.63;;
12665;SDS011;58531;59.050;17.416;2022-08-03T00:54:41;3.57;;;1.30;;
12665;SDS011;58531;59.050;17.416;2022-08-03T00:57:08;2.93;;;1.80;;
12665;SDS011;58531;59.050;17.416;2022-08-03T00:59:36;3.57;;;1.77;;
12665;SDS011;58531;59.050;17.416;2022-08-03T01:02:03;2.17;;;1.40;;
12665;SDS011;58531;59.050;17.416;2022-08-03T01:04:30;1.53;;;1.30;;
12665;SDS011;58531;59.050;17.416;2022-08-03T01:06:59;2.90;;;1.20;;
12665;SDS011;58531;59.050;17.416;2022-08-03T01:09:34;2.20;;;1.30;;
12665;SDS011;58531;59.050;17.416;2022-08-03T01:12:10;2.37;;;1.53;;
12665;SDS011;58531;59.050;17.416;2022-08-03T01:14:45;2.67;;;1.40;;
12665;SDS011;58531;59.050;17.416;2022-08-03T01:17:21;2.70;;;1.30;;
12665;SDS011;58531;59.050;17.416;2022-08-03T01:19:52;2.17;;;1.50;;
12665;SDS011;58531;59.050;17.416;2022-08-03T01:22:35;3.67;;;1.50;;
12665;SDS011;58531;59.050;17.416;2022-08-03T01:25:13;1.73;;;1.40;;
12665;SDS011;58531;59.050;17.416;2022-08-03T01:27:50;2.43;;;1.30;;
12665;SDS011;58531;59.050;17.416;2022-08-03T01:30:24;3.53;;;1.30;;
12665;SDS011;58531;59.050;17.416;2022-08-03T01:32:57;2.73;;;1.43;;
12665;SDS011;58531;59.050;17.416;2022-08-03T01:35:28;3.00;;;1.40;;
12665;SDS011;58531;59.050;17.416;2022-08-03T01:38:01;2.57;;;1.70;;
12665;SDS011;58531;59.050;17.416;2022-08-03T01:40:30;2.57;;;1.57;;
12665;SDS011;58531;59.050;17.416;2022-08-03T01:43:02;4.23;;;1.50;;
12665;SDS011;58531;59.050;17.416;2022-08-03T01:45:32;4.73;;;1.23;;
12665;SDS011;58531;59.050;17.416;2022-08-03T01:48:02;1.63;;;1.20;;
12665;SDS011;58531;59.050;17.416;2022-08-03T01:50:30;1.47;;;1.37;;
12665;SDS011;58531;59.050;17.416;2022-08-03T01:52:58;3.90;;;1.80;;
12665;SDS011;58531;59.050;17.416;2022-08-03T01:55:25;1.27;;;1.00;;
12665;SDS011;58531;59.050;17.416;2022-08-03T01:57:56;2.10;;;1.50;;
12665;SDS011;58531;59.050;17.416;2022-08-03T02:00:26;1.53;;;1.40;;
12665;SDS011;58531;59.050;17.416;2022-08-03T02:02:54;1.30;;;1.20;;
12665;SDS011;58531;59.050;17.416;2022-08-03T02:05:21;1.70;;;1.37;;
12665;SDS011;58531;59.050;17.416;2022-08-03T02:07:50;2.17;;;1.50;;
12665;SDS011;58531;59.050;17.416;2022-08-03T02:10:18;1.80;;;1.40;;
12665;SDS011;58531;59.050;17.416;2022-08-03T02:12:46;2.43;;;1.40;;
12665;SDS011;58531;59.050;17.416;2022-08-03T02:15:15;4.03;;;1.50;;
12665;SDS011;58531;59.050;17.416;2022-08-03T02:17:43;3.53;;;1.43;;
12665;SDS011;58531;59.050;17.416;2022-08-03T02:20:13;3.37;;;1.80;;
12665;SDS011;58531;59.050;17.416;2022-08-03T02:22:41;3.80;;;1.23;;
12665;SDS011;58531;59.050;17.416;2022-08-03T02:25:10;2.17;;;1.30;;
12665;SDS011;58531;59.050;17.416;2022-08-03T02:27:38;1.40;;;1.30;;
12665;SDS011;58531;59.050;17.416;2022-08-03T02:30:10;3.80;;;1.40;;
12665;SDS011;58531;59.050;17.416;2022-08-03T02:32:39;2.90;;;1.53;;
12665;SDS011;58531;59.050;17.416;2022-08-03T02:35:08;1.70;;;1.27;;
12665;SDS011;58531;59.050;17.416;2022-08-03T02:37:40;2.87;;;1.30;;
12665;SDS011;58531;59.050;17.416;2022-08-03T02:40:09;1.53;;;1.30;;
12665;SDS011;58531;59.050;17.416;2022-08-03T02:42:37;1.57;;;1.10;;
12665;SDS011;58531;59.050;17.416;2022-08-03T02:45:08;1.50;;;1.40;;
12665;SDS011;58531;59.050;17.416;2022-08-03T02:47:38;1.93;;;1.50;;
12665;SDS011;58531;59.050;17.416;2022-08-03T02:50:06;1.40;;;1.10;;
12665;SDS011;58531;59.050;17.416;2022-08-03T02:52:36;1.70;;;1.50;;
12665;SDS011;58531;59.050;17.416;2022-08-03T02:55:05;1.57;;;1.37;;
12665;SDS011;58531;59.050;17.416;2022-08-03T02:57:35;1.83;;;1.30;;
12665;SDS011;58531;59.050;17.416;2022-08-03T03:00:03;1.70;;;1.40;;
12665;SDS011;58531;59.050;17.416;2022-08-03T03:02:30;2.73;;;1.60;;
12665;SDS011;58531;59.050;17.416;2022-08-03T03:04:57;4.07;;;1.50;;
12665;SDS011;58531;59.050;17.416;2022-08-03T03:07:26;1.67;;;1.40;;
12665;SDS011;58531;59.050;17.416;2022-08-03T03:09:54;2.87;;;1.50;;
12665;SDS011;58531;59.050;17.416;2022-08-03T03:12:22;1.97;;;1.50;;
12665;SDS011;58531;59.050;17.416;2022-08-03T03:14:51;1.70;;;1.17;;
12665;SDS011;58531;59.050;17.416;2022-08-03T03:17:18;1.70;;;1.57;;
12665;SDS011;58531;59.050;17.416;2022-08-03T03:19:46;1.70;;;1.60;;
12665;SDS011;58531;59.050;17.416;2022-08-03T03:22:16;3.50;;;1.70;;
12665;SDS011;58531;59.050;17.416;2022-08-03T03:24:43;2.60;;;1.27;;
12665;SDS011;58531;59.050;17.416;2022-08-03T03:27:12;2.23;;;1.53;;
12665;SDS011;58531;59.050;17.416;2022-08-03T03:29:40;2.40;;;1.53;;
12665;SDS011;58531;59.050;17.416;2022-08-03T03:32:07;1.50;;;1.40;;
12665;SDS011;58531;59.050;17.416;2022-08-03T03:34:34;1.93;;;1.40;;
12665;SDS011;58531;59.050;17.416;2022-08-03T03:37:02;2.57;;;1.23;;
12665;SDS011;58531;59.050;17.416;2022-08-03T03:39:29;4.00;;;1.23;;
12665;SDS011;58531;59.050;17.416;2022-08-03T03:41:56;1.73;;;1.30;;
12665;SDS011;58531;59.050;17.416;2022-08-03T03:44:25;1.47;;;1.30;;
12665;SDS011;58531;59.050;17.416;2022-08-03T03:46:54;1.80;;;1.30;;
12665;SDS011;58531;59.050;17.416;2022-08-03T03:49:20;3.53;;;1.30;;
12665;SDS011;58531;59.050;17.416;2022-08-03T03:51:47;2.30;;;1.40;;
12665;SDS011;58531;59.050;17.416;2022-08-03T03:54:17;3.00;;;1.30;;
12665;SDS011;58531;59.050;17.416;2022-08-03T03:56:43;4.17;;;1.30;;
12665;SDS011;58531;59.050;17.416;2022-08-03T03:59:10;3.10;;;1.60;;
12665;SDS011;58531;59.050;17.416;2022-08-03T04:01:37;1.50;;;1.10;;
12665;SDS011;58531;59.050;17.416;2022-08-03T04:04:05;2.17;;;1.23;;
12665;SDS011;58531;59.050;17.416;2022-08-03T04:06:46;2.33;;;1.40;;
12665;SDS011;58531;59.050;17.416;2022-08-03T04:09:30;2.43;;;1.40;;
12665;SDS011;58531;59.050;17.416;2022-08-03T04:12:17;2.07;;;1.50;;
12665;SDS011;58531;59.050;17.416;2022-08-03T04:14:47;1.53;;;1.10;;
12665;SDS011;58531;59.050;17.416;2022-08-03T04:17:16;2.13;;;1.33;;
12665;SDS011;58531;59.050;17.416;2022-08-03T04:19:46;3.70;;;1.50;;
12665;SDS011;58531;59.050;17.416;2022-08-03T04:22:18;2.70;;;1.50;;
12665;SDS011;58531;59.050;17.416;2022-08-03T04:24:48;2.07;;;1.00;;
12665;SDS011;58531;59.050;17.416;2022-08-03T04:27:20;3.63;;;1.30;;
12665;SDS011;58531;59.050;17.416;2022-08-03T04:29:48;2.37;;;1.33;;
12665;SDS011;58531;59.050;17.416;2022-08-03T04:32:18;2.07;;;1.30;;
12665;SDS011;58531;59.050;17.416;2022-08-03T04:34:48;1.67;;;1.30;;
12665;SDS011;58531;59.050;17.416;2022-08-03T04:37:17;1.87;;;1.20;;
12665;SDS011;58531;59.050;17.416;2022-08-03T04:39:50;2.33;;;1.40;;
12665;SDS011;58531;59.050;17.416;2022-08-03T04:42:21;2.57;;;1.13;;
12665;SDS011;58531;59.050;17.416;2022-08-03T04:44:49;1.90;;;1.30;;
12665;SDS011;58531;59.050;17.416;2022-08-03T04:47:17;1.53;;;1.20;;
12665;SDS011;58531;59.050;17.416;2022-08-03T04:49:45;1.10;;;0.90;;
12665;SDS011;58531;59.050;17.416;2022-08-03T04:52:13;1.67;;;1.10;;
12665;SDS011;58531;59.050;17.416;2022-08-03T04:54:40;1.77;;;1.20;;
12665;SDS011;58531;59.050;17.416;2022-08-03T04:57:08;2.00;;;1.30;;
12665;SDS011;58531;59.050;17.416;2022-08-03T04:59:35;3.13;;;1.20;;
12665;SDS011;58531;59.050;17.416;2022-08-03T05:02:02;1.50;;;1.20;;
12665;SDS011;58531;59.050;17.416;2022-08-03T05:04:31;1.80;;;1.20;;
12665;SDS011;58531;59.050;17.416;2022-08-03T05:06:57;2.53;;;1.60;;
12665;SDS011;58531;59.050;17.416;2022-08-03T05:09:25;1.20;;;1.07;;
12665;SDS011;58531;59.050;17.416;2022-08-03T05:11:52;1.30;;;1.20;;
12665;SDS011;58531;59.050;17.416;2022-08-03T05:14:19;1.33;;;1.20;;
12665;SDS011;58531;59.050;17.416;2022-08-03T05:16:46;1.50;;;1.27;;
12665;SDS011;58531;59.050;17.416;2022-08-03T05:19:12;1.57;;;1.40;;
12665;SDS011;58531;59.050;17.416;2022-08-03T05:21:39;1.90;;;0.90;;
12665;SDS011;58531;59.050;17.416;2022-08-03T05:24:06;2.97;;;1.50;;
12665;SDS011;58531;59.050;17.416;2022-08-03T05:26:34;2.73;;;1.30;;
12665;SDS011;58531;59.050;17.416;2022-08-03T05:29:01;1.50;;;1.17;;
12665;SDS011;58531;59.050;17.416;2022-08-03T05:31:28;1.67;;;1.20;;
12665;SDS011;58531;59.050;17.416;2022-08-03T05:33:55;2.53;;;1.20;;
12665;SDS011;58531;59.050;17.416;2022-08-03T05:36:22;1.77;;;1.20;;
12665;SDS011;58531;59.050;17.416;2022-08-03T05:38:49;1.83;;;1.23;;
12665;SDS011;58531;59.050;17.416;2022-08-03T05:41:15;1.67;;;1.33;;
12665;SDS011;58531;59.050;17.416;2022-08-03T05:43:44;1.20;;;1.10;;
12665;SDS011;58531;59.050;17.416;2022-08-03T05:46:11;2.63;;;1.30;;
12665;SDS011;58531;59.050;17.416;2022-08-03T05:48:38;2.23;;;1.37;;
12665;SDS011;58531;59.050;17.416;2022-08-03T05:51:04;4.77;;;1.20;;
12665;SDS011;58531;59.050;17.416;2022-08-03T05:53:35;1.87;;;1.10;;
12665;SDS011;58531;59.050;17.416;2022-08-03T05:56:02;1.57;;;1.43;;
12665;SDS011;58531;59.050;17.416;2022-08-03T05:58:29;2.20;;;1.43;;
12665;SDS011;58531;59.050;17.416;2022-08-03T06:00:57;1.23;;;1.13;;
12665;SDS011;58531;59.050;17.416;2022-08-03T06:03:24;1.67;;;1.53;;
12665;SDS011;58531;59.050;17.416;2022-08-03T06:05:51;2.30;;;1.20;;
12665;SDS011;58531;59.050;17.416;2022-08-03T06:08:19;2.43;;;1.40;;
12665;SDS011;58531;59.050;17.416;2022-08-03T06:10:46;1.60;;;1.20;;
12665;SDS011;58531;59.050;17.416;2022-08-03T06:13:13;1.93;;;1.50;;
12665;SDS011;58531;59.050;17.416;2022-08-03T06:15:40;1.20;;;1.10;;
12665;SDS011;58531;59.050;17.416;2022-08-03T06:18:08;3.13;;;1.60;;
12665;SDS011;58531;59.050;17.416;2022-08-03T06:20:35;1.43;;;1.27;;
12665;SDS011;58531;59.050;17.416;2022-08-03T06:23:01;2.37;;;1.40;;
12665;SDS011;58531;59.050;17.416;2022-08-03T06:25:28;4.23;;;1.40;;
12665;SDS011;58531;59.050;17.416;2022-08-03T06:27:55;1.53;;;1.20;;
12665;SDS011;58531;59.050;17.416;2022-08-03T06:30:21;1.90;;;1.37;;
12665;SDS011;58531;59.050;17.416;2022-08-03T06:32:48;2.10;;;1.30;;
12665;SDS011;58531;59.050;17.416;2022-08-03T06:35:16;1.40;;;1.30;;
12665;SDS011;58531;59.050;17.416;2022-08-03T06:37:43;1.93;;;1.27;;
12665;SDS011;58531;59.050;17.416;2022-08-03T06:40:11;2.87;;;1.30;;
12665;SDS011;58531;59.050;17.416;2022-08-03T06:42:39;2.87;;;1.30;;
12665;SDS011;58531;59.050;17.416;2022-08-03T06:45:06;1.73;;;1.20;;
12665;SDS011;58531;59.050;17.416;2022-08-03T06:47:34;2.17;;;1.17;;
12665;SDS011;58531;59.050;17.416;2022-08-03T06:50:00;2.47;;;1.40;;
12665;SDS011;58531;59.050;17.416;2022-08-03T06:52:29;2.07;;;1.20;;
12665;SDS011;58531;59.050;17.416;2022-08-03T06:54:55;2.20;;;1.50;;
12665;SDS011;58531;59.050;17.416;2022-08-03T06:57:22;1.30;;;1.10;;
12665;SDS011;58531;59.050;17.416;2022-08-03T06:59:49;2.23;;;1.40;;
12665;SDS011;58531;59.050;17.416;2022-08-03T07:02:16;1.37;;;1.20;;
12665;SDS011;58531;59.050;17.416;2022-08-03T07:04:44;1.80;;;1.20;;
12665;SDS011;58531;59.050;17.416;2022-08-03T07:07:10;3.03;;;1.40;;
12665;SDS011;58531;59.050;17.416;2022-08-03T07:09:39;1.30;;;1.20;;
12665;SDS011;58531;59.050;17.416;2022-08-03T07:12:05;2.97;;;1.43;;
12665;SDS011;58531;59.050;17.416;2022-08-03T07:14:32;3.53;;;1.20;;
12665;SDS011;58531;59.050;17.416;2022-08-03T07:16:59;1.77;;;1.40;;
12665;SDS011;58531;59.050;17.416;2022-08-03T07:19:25;1.30;;;1.20;;
12665;SDS011;58531;59.050;17.416;2022-08-03T07:21:52;1.30;;;1.20;;
12665;SDS011;58531;59.050;17.416;2022-08-03T07:24:19;3.67;;;1.30;;
12665;SDS011;58531;59.050;17.416;2022-08-03T07:26:47;1.30;;;1.20;;
12665;SDS011;58531;59.050;17.416;2022-08-03T07:29:13;1.73;;;1.23;;
12665;SDS011;58531;59.050;17.416;2022-08-03T07:31:40;1.40;;;1.30;;
12665;SDS011;58531;59.050;17.416;2022-08-03T07:34:07;1.50;;;1.40;;
12665;SDS011;58531;59.050;17.416;2022-08-03T07:36:33;1.70;;;1.40;;
12665;SDS011;58531;59.050;17.416;2022-08-03T07:39:00;2.33;;;1.30;;
12665;SDS011;58531;59.050;17.416;2022-08-03T07:41:26;1.70;;;1.20;;
12665;SDS011;58531;59.050;17.416;2022-08-03T07:43:54;1.50;;;1.37;;
12665;SDS011;58531;59.050;17.416;2022-08-03T07:46:21;1.37;;;1.27;;
12665;SDS011;58531;59.050;17.416;2022-08-03T07:48:48;2.03;;;1.30;;
12665;SDS011;58531;59.050;17.416;2022-08-03T07:51:15;1.77;;;1.40;;
12665;SDS011;58531;59.050;17.416;2022-08-03T07:53:41;2.93;;;1.40;;
12665;SDS011;58531;59.050;17.416;2022-08-03T07:56:08;2.20;;;1.20;;
12665;SDS011;58531;59.050;17.416;2022-08-03T07:58:34;3.07;;;1.60;;
12665;SDS011;58531;59.050;17.416;2022-08-03T08:01:02;2.30;;;1.30;;
12665;SDS011;58531;59.050;17.416;2022-08-03T08:03:29;1.20;;;1.10;;
12665;SDS011;58531;59.050;17.416;2022-08-03T08:05:56;1.10;;;1.10;;
12665;SDS011;58531;59.050;17.416;2022-08-03T08:08:24;2.60;;;1.40;;
12665;SDS011;58531;59.050;17.416;2022-08-03T08:10:51;1.20;;;1.10;;
12665;SDS011;58531;59.050;17.416;2022-08-03T08:13:17;1.50;;;1.20;;
12665;SDS011;58531;59.050;17.416;2022-08-03T08:15:44;1.50;;;1.10;;
12665;SDS011;58531;59.050;17.416;2022-08-03T08:18:12;3.00;;;1.10;;
12665;SDS011;58531;59.050;17.416;2022-08-03T08:20:39;1.20;;;1.10;;
12665;SDS011;58531;59.050;17.416;2022-08-03T08:23:08;1.87;;;1.20;;
12665;SDS011;58531;59.050;17.416;2022-08-03T08:25:34;2.17;;;1.17;;
12665;SDS011;58531;59.050;17.416;2022-08-03T08:28:01;1.43;;;1.27;;
12665;SDS011;58531;59.050;17.416;2022-08-03T08:30:29;1.30;;;1.20;;
12665;SDS011;58531;59.050;17.416;2022-08-03T08:32:57;1.33;;;1.20;;
12665;SDS011;58531;59.050;17.416;2022-08-03T08:35:25;1.27;;;1.17;;
12665;SDS011;58531;59.050;17.416;2022-08-03T08:37:52;2.30;;;1.30;;
12665;SDS011;58531;59.050;17.416;2022-08-03T08:40:19;1.70;;;1.20;;
12665;SDS011;58531;59.050;17.416;2022-08-03T08:42:47;1.53;;;1.23;;
12665;SDS011;58531;59.050;17.416;2022-08-03T08:45:14;2.10;;;1.13;;
12665;SDS011;58531;59.050;17.416;2022-08-03T08:47:43;1.33;;;1.20;;
12665;SDS011;58531;59.050;17.416;2022-08-03T08:50:11;2.23;;;1.20;;
12665;SDS011;58531;59.050;17.416;2022-08-03T08:52:40;2.43;;;1.13;;
12665;SDS011;58531;59.050;17.416;2022-08-03T08:55:07;1.23;;;1.13;;
12665;SDS011;58531;59.050;17.416;2022-08-03T08:57:36;2.03;;;1.20;;
12665;SDS011;58531;59.050;17.416;2022-08-03T09:00:04;1.47;;;1.13;;
12665;SDS011;58531;59.050;17.416;2022-08-03T09:02:33;2.13;;;1.20;;
12665;SDS011;58531;59.050;17.416;2022-08-03T09:05:00;1.37;;;1.23;;
12665;SDS011;58531;59.050;17.416;2022-08-03T09:07:27;1.50;;;1.30;;
12665;SDS011;58531;59.050;17.416;2022-08-03T09:09:57;1.47;;;1.37;;
12665;SDS011;58531;59.050;17.416;2022-08-03T09:12:23;1.97;;;1.57;;
12665;SDS011;58531;59.050;17.416;2022-08-03T09:14:50;2.33;;;1.53;;
12665;SDS011;58531;59.050;17.416;2022-08-03T09:17:17;1.57;;;1.30;;
12665;SDS011;58531;59.050;17.416;2022-08-03T09:19:46;1.60;;;1.50;;
12665;SDS011;58531;59.050;17.416;2022-08-03T09:22:30;2.50;;;1.60;;
12665;SDS011;58531;59.050;17.416;2022-08-03T09:24:59;3.13;;;1.83;;
12665;SDS011;58531;59.050;17.416;2022-08-03T09:27:27;1.77;;;1.30;;
12665;SDS011;58531;59.050;17.416;2022-08-03T09:29:54;2.13;;;1.53;;
12665;SDS011;58531;59.050;17.416;2022-08-03T09:32:21;1.87;;;1.50;;
12665;SDS011;58531;59.050;17.416;2022-08-03T09:34:49;1.80;;;1.50;;
12665;SDS011;58531;59.050;17.416;2022-08-03T09:37:17;1.40;;;1.30;;
12665;SDS011;58531;59.050;17.416;2022-08-03T09:39:49;1.60;;;1.50;;
12665;SDS011;58531;59.050;17.416;2022-08-03T09:42:18;1.30;;;1.20;;
12665;SDS011;58531;59.050;17.416;2022-08-03T09:44:47;1.43;;;1.33;;
12665;SDS011;58531;59.050;17.416;2022-08-03T09:47:15;3.80;;;1.57;;
12665;SDS011;58531;59.050;17.416;2022-08-03T09:49:56;2.03;;;1.50;;
12665;SDS011;58531;59.050;17.416;2022-08-03T09:52:28;2.60;;;1.40;;
12665;SDS011;58531;59.050;17.416;2022-08-03T09:54:56;1.40;;;1.27;;
12665;SDS011;58531;59.050;17.416;2022-08-03T09:57:26;2.77;;;1.30;;
12665;SDS011;58531;59.050;17.416;2022-08-03T10:00:04;1.50;;;1.40;;
12665;SDS011;58531;59.050;17.416;2022-08-03T10:02:34;4.63;;;1.60;;
12665;SDS011;58531;59.050;17.416;2022-08-03T10:05:01;1.20;;;1.10;;
12665;SDS011;58531;59.050;17.416;2022-08-03T10:07:28;1.63;;;1.20;;
12665;SDS011;58531;59.050;17.416;2022-08-03T10:09:55;9.10;;;2.03;;
12665;SDS011;58531;59.050;17.416;2022-08-03T10:12:23;2.03;;;1.30;;
12665;SDS011;58531;59.050;17.416;2022-08-03T10:14:52;1.30;;;1.20;;
12665;SDS011;58531;59.050;17.416;2022-08-03T10:17:19;2.87;;;1.30;;
12665;SDS011;58531;59.050;17.416;2022-08-03T10:19:46;2.17;;;1.30;;
12665;SDS011;58531;59.050;17.416;2022-08-03T10:22:14;1.97;;;1.30;;
12665;SDS011;58531;59.050;17.416;2022-08-03T10:24:45;2.03;;;1.10;;
12665;SDS011;58531;59.050;17.416;2022-08-03T10:27:15;1.63;;;1.20;;
12665;SDS011;58531;59.050;17.416;2022-08-03T10:29:44;1.33;;;1.23;;
12665;SDS011;58531;59.050;17.416;2022-08-03T10:32:20;1.57;;;1.27;;
12665;SDS011;58531;59.050;17.416;2022-08-03T10:34:50;1.30;;;1.13;;
12665;SDS011;58531;59.050;17.416;2022-08-03T10:37:18;1.23;;;1.10;;
12665;SDS011;58531;59.050;17.416;2022-08-03T10:39:50;1.10;;;1.00;;
12665;SDS011;58531;59.050;17.416;2022-08-03T10:42:20;1.47;;;1.17;;
12665;SDS011;58531;59.050;17.416;2022-08-03T10:44:51;1.60;;;1.40;;
12665;SDS011;58531;59.050;17.416;2022-08-03T10:47:31;1.53;;;1.20;;
12665;SDS011;58531;59.050;17.416;2022-08-03T10:49:59;2.00;;;1.40;;
12665;SDS011;58531;59.050;17.416;2022-08-03T10:52:28;1.43;;;1.33;;
12665;SDS011;58531;59.050;17.416;2022-08-03T10:54:55;2.40;;;1.53;;
12665;SDS011;58531;59.050;17.416;2022-08-03T10:57:46;2.10;;;1.13;;
12665;SDS011;58531;59.050;17.416;2022-08-03T11:00:15;2.20;;;1.40;;
12665;SDS011;58531;59.050;17.416;2022-08-03T11:03:05;1.70;;;1.40;;
12665;SDS011;58531;59.050;17.416;2022-08-03T11:05:35;1.60;;;1.30;;
12665;SDS011;58531;59.050;17.416;2022-08-03T11:08:17;2.40;;;1.53;;
12665;SDS011;58531;59.050;17.416;2022-08-03T11:10:45;3.87;;;1.80;;
12665;SDS011;58531;59.050;17.416;2022-08-03T11:13:12;4.50;;;2.20;;
12665;SDS011;58531;59.050;17.416;2022-08-03T11:15:43;6.23;;;2.27;;
12665;SDS011;58531;59.050;17.416;2022-08-03T11:18:16;2.30;;;1.70;;
12665;SDS011;58531;59.050;17.416;2022-08-03T11:20:47;2.87;;;1.80;;
12665;SDS011;58531;59.050;17.416;2022-08-03T11:23:15;1.93;;;1.50;;
12665;SDS011;58531;59.050;17.416;2022-08-03T11:26:09;2.47;;;1.43;;
12665;SDS011;58531;59.050;17.416;2022-08-03T11:28:36;2.50;;;1.80;;
12665;SDS011;58531;59.050;17.416;2022-08-03T11:34:15;4.87;;;1.77;;
12665;SDS011;58531;59.050;17.416;2022-08-03T11:39:48;2.67;;;1.60;;
12665;SDS011;58531;59.050;17.416;2022-08-03T11:45:08;2.83;;;1.60;;
12665;SDS011;58531;59.050;17.416;2022-08-03T11:47:37;1.53;;;1.43;;
12665;SDS011;58531;59.050;17.416;2022-08-03T11:50:07;2.07;;;1.50;;
12665;SDS011;58531;59.050;17.416;2022-08-03T11:52:36;3.53;;;1.60;;
12665;SDS011;58531;59.050;17.416;2022-08-03T11:55:08;2.73;;;1.27;;
12665;SDS011;58531;59.050;17.416;2022-08-03T11:57:39;4.37;;;1.40;;
12665;SDS011;58531;59.050;17.416;2022-08-03T12:00:22;1.37;;;1.27;;
12665;SDS011;58531;59.050;17.416;2022-08-03T12:02:57;1.67;;;1.50;;
12665;SDS011;58531;59.050;17.416;2022-08-03T12:08:30;2.13;;;1.40;;
12665;SDS011;58531;59.050;17.416;2022-08-03T12:10:58;2.33;;;1.60;;
12665;SDS011;58531;59.050;17.416;2022-08-03T12:13:27;2.03;;;1.43;;
12665;SDS011;58531;59.050;17.416;2022-08-03T12:16:02;2.07;;;1.63;;
12665;SDS011;58531;59.050;17.416;2022-08-03T12:18:29;1.80;;;1.30;;
12665;SDS011;58531;59.050;17.416;2022-08-03T12:21:03;1.50;;;1.40;;
12665;SDS011;58531;59.050;17.416;2022-08-03T12:23:32;1.97;;;1.30;;
12665;SDS011;58531;59.050;17.416;2022-08-03T12:26:02;1.97;;;1.40;;
12665;SDS011;58531;59.050;17.416;2022-08-03T12:28:30;2.93;;;1.30;;
12665;SDS011;58531;59.050;17.416;2022-08-03T12:30:59;1.30;;;1.20;;
12665;SDS011;58531;59.050;17.416;2022-08-03T12:33:27;2.47;;;1.50;;
12665;SDS011;58531;59.050;17.416;2022-08-03T12:36:02;2.47;;;1.60;;
12665;SDS011;58531;59.050;17.416;2022-08-03T12:38:32;2.23;;;1.60;;
12665;SDS011;58531;59.050;17.416;2022-08-03T12:41:00;2.00;;;1.50;;
12665;SDS011;58531;59.050;17.416;2022-08-03T12:43:29;2.00;;;1.50;;
12665;SDS011;58531;59.050;17.416;2022-08-03T12:46:09;2.10;;;1.80;;
12665;SDS011;58531;59.050;17.416;2022-08-03T12:51:27;3.40;;;1.50;;
12665;SDS011;58531;59.050;17.416;2022-08-03T12:53:55;3.03;;;1.57;;
12665;SDS011;58531;59.050;17.416;2022-08-03T12:56:22;1.93;;;1.30;;
12665;SDS011;58531;59.050;17.416;2022-08-03T12:58:49;1.60;;;1.50;;
12665;SDS011;58531;59.050;17.416;2022-08-03T13:01:17;2.40;;;1.30;;
12665;SDS011;58531;59.050;17.416;2022-08-03T13:03:47;2.03;;;1.20;;
12665;SDS011;58531;59.050;17.416;2022-08-03T13:06:17;2.30;;;1.40;;
12665;SDS011;58531;59.050;17.416;2022-08-03T13:08:46;1.43;;;1.30;;
12665;SDS011;58531;59.050;17.416;2022-08-03T13:11:19;1.70;;;1.60;;
12665;SDS011;58531;59.050;17.416;2022-08-03T13:13:47;2.93;;;1.50;;
12665;SDS011;58531;59.050;17.416;2022-08-03T13:16:14;3.27;;;1.50;;
12665;SDS011;58531;59.050;17.416;2022-08-03T13:18:41;2.37;;;1.30;;
12665;SDS011;58531;59.050;17.416;2022-08-03T13:21:10;2.57;;;1.30;;
12665;SDS011;58531;59.050;17.416;2022-08-03T13:23:38;2.10;;;1.50;;
12665;SDS011;58531;59.050;17.416;2022-08-03T13:26:06;1.40;;;1.30;;
12665;SDS011;58531;59.050;17.416;2022-08-03T13:28:32;2.33;;;1.50;;
12665;SDS011;58531;59.050;17.416;2022-08-03T13:30:59;2.03;;;1.50;;
12665;SDS011;58531;59.050;17.416;2022-08-03T13:33:26;2.33;;;1.40;;
12665;SDS011;58531;59.050;17.416;2022-08-03T13:35:53;2.60;;;1.63;;
12665;SDS011;58531;59.050;17.416;2022-08-03T13:38:20;1.30;;;1.10;;
12665;SDS011;58531;59.050;17.416;2022-08-03T13:40:46;2.40;;;1.57;;
12665;SDS011;58531;59.050;17.416;2022-08-03T13:43:15;2.27;;;1.60;;
12665;SDS011;58531;59.050;17.416;2022-08-03T13:45:41;2.67;;;1.60;;
12665;SDS011;58531;59.050;17.416;2022-08-03T13:48:08;2.57;;;1.60;;
12665;SDS011;58531;59.050;17.416;2022-08-03T13:50:34;3.27;;;1.93;;
12665;SDS011;58531;59.050;17.416;2022-08-03T13:53:01;2.20;;;1.70;;
12665;SDS011;58531;59.050;17.416;2022-08-03T13:55:28;3.00;;;1.60;;
12665;SDS011;58531;59.050;17.416;2022-08-03T13:57:54;3.73;;;2.07;;
12665;SDS011;58531;59.050;17.416;2022-08-03T14:00:22;4.83;;;1.87;;
12665;SDS011;58531;59.050;17.416;2022-08-03T14:02:50;3.73;;;2.00;;
12665;SDS011;58531;59.050;17.416;2022-08-03T14:05:16;4.07;;;2.20;;
12665;SDS011;58531;59.050;17.416;2022-08-03T14:07:43;2.30;;;2.10;;
12665;SDS011;58531;59.050;17.416;2022-08-03T14:10:10;5.37;;;2.27;;
12665;SDS011;58531;59.050;17.416;2022-08-03T14:12:36;3.40;;;2.23;;
12665;SDS011;58531;59.050;17.416;2022-08-03T14:15:03;2.73;;;2.13;;
12665;SDS011;58531;59.050;17.416;2022-08-03T14:17:35;2.93;;;2.07;;
12665;SDS011;58531;59.050;17.416;2022-08-03T14:20:02;3.13;;;1.90;;
12665;SDS011;58531;59.050;17.416;2022-08-03T14:22:30;2.67;;;2.00;;
12665;SDS011;58531;59.050;17.416;2022-08-03T14:24:57;3.37;;;2.13;;
12665;SDS011;58531;59.050;17.416;2022-08-03T14:27:23;3.20;;;2.10;;
12665;SDS011;58531;59.050;17.416;2022-08-03T14:29:50;2.20;;;2.00;;
12665;SDS011;58531;59.050;17.416;2022-08-03T14:32:16;3.93;;;1.90;;
12665;SDS011;58531;59.050;17.416;2022-08-03T14:34:44;4.07;;;2.43;;
12665;SDS011;58531;59.050;17.416;2022-08-03T14:37:11;4.87;;;2.33;;
12665;SDS011;58531;59.050;17.416;2022-08-03T14:39:37;2.70;;;1.90;;
12665;SDS011;58531;59.050;17.416;2022-08-03T14:42:04;3.40;;;2.10;;
12665;SDS011;58531;59.050;17.416;2022-08-03T14:44:31;2.60;;;2.00;;
12665;SDS011;58531;59.050;17.416;2022-08-03T14:46:57;4.50;;;2.00;;
12665;SDS011;58531;59.050;17.416;2022-08-03T14:49:24;2.17;;;1.90;;
12665;SDS011;58531;59.050;17.416;2022-08-03T14:51:52;6.07;;;2.10;;
12665;SDS011;58531;59.050;17.416;2022-08-03T14:54:19;4.23;;;1.90;;
12665;SDS011;58531;59.050;17.416;2022-08-03T14:56:46;4.60;;;2.00;;